createdAt,value
2019-02-07T00:03:19.730Z,25.37
2019-02-07T00:07:23.454Z,27.00
2019-02-07T00:11:26.834Z,26.40
2019-02-07T00:15:30.915Z,22.87
2019-02-07T00:19:34.875Z,24.30
2019-02-07T00:23:38.174Z,24.73
2019-02-07T00:27:41.471Z,26.07
2019-02-07T00:31:45.122Z,23.20
2019-02-07T00:35:48.861Z,23.60
2019-02-07T00:39:52.646Z,24.17
2019-02-07T00:43:55.966Z,24.50
2019-02-07T00:47:59.762Z,23.40
2019-02-07T00:52:03.558Z,24.93
2019-02-07T00:56:07.538Z,23.50
2019-02-07T01:00:13.176Z,21.80
2019-02-07T01:04:16.898Z,22.63
2019-02-07T01:08:20.274Z,20.03
2019-02-07T01:12:23.866Z,20.73
2019-02-07T01:16:27.447Z,22.87
2019-02-07T01:20:31.326Z,22.70
2019-02-07T01:24:35.134Z,24.90
2019-02-07T01:28:38.974Z,23.23
2019-02-07T01:32:42.339Z,22.73
2019-02-07T01:36:46.542Z,22.87
2019-02-07T01:40:50.258Z,23.70
2019-02-07T01:44:53.631Z,22.83
2019-02-07T01:48:56.922Z,23.90
2019-02-07T01:53:00.218Z,20.83
2019-02-07T01:57:03.514Z,21.40
2019-02-07T02:01:06.987Z,21.10
2019-02-07T02:05:11.902Z,22.67
2019-02-07T02:09:15.702Z,21.20
2019-02-07T02:13:19.590Z,21.83
2019-02-07T02:17:23.705Z,23.50
2019-02-07T02:21:27.596Z,22.60
2019-02-07T02:25:30.873Z,22.60
2019-02-07T02:29:34.754Z,23.17
2019-02-07T02:33:38.489Z,24.07
2019-02-07T02:37:42.450Z,24.57
2019-02-07T02:41:46.190Z,22.67
2019-02-07T02:45:50.920Z,21.30
2019-02-07T02:49:54.282Z,22.77
2019-02-07T02:54:00.026Z,22.97
2019-02-07T02:58:04.322Z,21.20
2019-02-07T03:02:21.026Z,23.70
2019-02-07T03:06:43.594Z,19.43
2019-02-07T03:11:06.205Z,21.43
2019-02-07T03:15:28.599Z,22.87
2019-02-07T03:19:51.070Z,21.27
2019-02-07T03:24:25.650Z,22.40
2019-02-07T03:28:48.368Z,21.53
2019-02-07T03:33:11.699Z,21.80
2019-02-07T03:37:33.295Z,25.47
2019-02-07T03:41:47.462Z,23.83
2019-02-07T03:46:13.425Z,22.87
2019-02-07T03:50:25.854Z,23.23
2019-02-07T03:54:57.315Z,24.33
2019-02-07T03:59:19.803Z,24.40
2019-02-07T04:03:41.294Z,23.53
2019-02-07T04:08:02.070Z,21.83
2019-02-07T04:12:23.446Z,24.20
2019-02-07T04:16:41.262Z,24.00
2019-02-07T04:20:57.670Z,24.47
2019-02-07T04:25:20.498Z,26.13
2019-02-07T04:29:46.807Z,28.93
2019-02-07T04:34:09.464Z,26.47
2019-02-07T04:38:25.384Z,28.70
2019-02-07T04:42:46.718Z,30.57
2019-02-07T04:47:17.262Z,27.63
2019-02-07T04:51:32.202Z,26.87
2019-02-07T04:55:53.726Z,27.97
2019-02-07T05:00:15.539Z,28.10
2019-02-07T05:04:37.387Z,29.37
2019-02-07T05:08:48.422Z,25.57
2019-02-07T05:13:21.982Z,28.70
2019-02-07T05:17:44.470Z,24.40
2019-02-07T05:22:06.719Z,24.77
2019-02-07T05:26:30.454Z,24.10
2019-02-07T05:30:46.914Z,23.77
2019-02-07T05:35:07.254Z,25.23
2019-02-07T05:39:42.048Z,20.97
2019-02-07T05:44:16.690Z,24.90
2019-02-07T05:48:48.306Z,24.00
2019-02-07T05:53:09.221Z,21.10
2019-02-07T05:57:32.423Z,24.17
2019-02-07T06:01:55.322Z,26.90
2019-02-07T06:06:13.565Z,24.40
2019-02-07T06:10:38.806Z,25.23
2019-02-07T06:15:01.206Z,22.53
2019-02-07T06:19:36.100Z,23.83
2019-02-07T06:24:08.174Z,24.07
2019-02-07T06:28:34.106Z,21.27
2019-02-07T06:32:55.713Z,23.20
2019-02-07T06:37:07.222Z,21.60
2019-02-07T06:41:28.702Z,25.17
2019-02-07T06:46:03.799Z,18.87
2019-02-07T06:50:25.611Z,22.57
2019-02-07T06:54:43.882Z,24.97
2019-02-07T06:59:12.594Z,23.77
2019-02-07T07:03:35.454Z,22.70
2019-02-07T07:08:10.100Z,22.30
2019-02-07T07:12:31.666Z,21.23
2019-02-07T07:17:09.936Z,21.87
2019-02-07T07:21:31.518Z,21.57
2019-02-07T07:25:53.139Z,19.17
2019-02-07T07:30:31.014Z,21.57
2019-02-07T07:34:59.842Z,22.40
2019-02-07T07:39:24.135Z,19.07
2019-02-07T07:43:46.080Z,22.97
2019-02-07T07:48:08.430Z,17.50
2019-02-07T07:52:29.210Z,14.50
2019-02-07T07:56:43.661Z,14.20
2019-02-07T08:01:09.318Z,11.27
2019-02-07T08:05:26.206Z,8.67
2019-02-07T08:09:51.674Z,5.53
2019-02-07T08:14:17.546Z,3.87
2019-02-07T08:18:31.254Z,3.80
2019-02-07T08:22:52.742Z,4.53
2019-02-07T08:27:11.859Z,3.83
2019-02-07T08:31:29.202Z,4.07
2019-02-07T08:35:57.712Z,5.03
2019-02-07T08:40:20.643Z,4.30
2019-02-07T08:44:43.530Z,4.77
2019-02-07T08:49:05.659Z,5.57
2019-02-07T08:53:31.566Z,3.80
2019-02-07T08:58:00.109Z,5.33
2019-02-07T09:02:23.558Z,4.13
2019-02-07T09:06:55.058Z,6.30
2019-02-07T09:11:16.514Z,4.83
2019-02-07T09:15:27.334Z,4.37
2019-02-07T09:19:48.975Z,6.13
2019-02-07T09:24:02.195Z,5.40
2019-02-07T09:28:13.766Z,5.27
2019-02-07T09:32:45.666Z,4.13
2019-02-07T09:37:08.634Z,5.13
2019-02-07T09:41:37.650Z,4.67
2019-02-07T09:45:54.682Z,4.30
2019-02-07T09:50:20.692Z,3.67
2019-02-07T09:54:55.878Z,5.23
2019-02-07T09:59:22.717Z,3.53
2019-02-07T10:03:48.355Z,6.10
2019-02-07T10:08:09.486Z,6.47
2019-02-07T10:12:31.514Z,4.20
2019-02-07T10:17:03.472Z,3.27
2019-02-07T10:21:25.243Z,3.97
2019-02-07T10:25:46.874Z,4.63
2019-02-07T10:30:07.746Z,4.30
2019-02-07T10:34:29.687Z,3.70
2019-02-07T10:38:51.146Z,3.60
2019-02-07T10:43:22.206Z,4.43
2019-02-07T10:47:51.147Z,3.80
2019-02-07T10:52:21.518Z,3.97
2019-02-07T10:56:48.235Z,3.63
2019-02-07T11:01:17.634Z,3.97
2019-02-07T11:05:39.862Z,3.90
2019-02-07T11:09:58.398Z,4.03
2019-02-07T11:14:21.298Z,3.50
2019-02-07T11:18:38.199Z,3.30
2019-02-07T11:22:59.806Z,3.67
2019-02-07T11:27:31.689Z,5.00
2019-02-07T11:31:47.934Z,4.63
2019-02-07T11:36:09.092Z,2.93
2019-02-07T11:40:32.598Z,2.87
2019-02-07T11:44:54.670Z,3.97
2019-02-07T11:49:12.318Z,5.20
2019-02-07T11:53:22.742Z,3.93
2019-02-07T11:57:54.138Z,3.60
2019-02-07T12:02:28.861Z,3.93
2019-02-07T12:06:54.118Z,4.33
2019-02-07T12:11:29.231Z,3.77
2019-02-07T12:16:03.847Z,3.43
2019-02-07T12:20:25.979Z,3.70
2019-02-07T12:24:57.690Z,3.53
2019-02-07T12:29:26.790Z,3.77
2019-02-07T12:33:47.012Z,4.83
2019-02-07T12:38:08.096Z,3.67
2019-02-07T12:42:27.250Z,4.03
2019-02-07T12:46:48.742Z,4.30
2019-02-07T12:51:10.574Z,3.90
2019-02-07T12:55:32.471Z,3.83
2019-02-07T12:59:55.978Z,4.03
2019-02-07T13:04:29.254Z,3.50
2019-02-07T13:09:08.082Z,3.10
2019-02-07T13:13:46.199Z,3.70
2019-02-07T13:18:08.187Z,3.83
2019-02-07T13:22:30.099Z,3.27
2019-02-07T13:26:41.579Z,3.43
2019-02-07T13:31:12.099Z,4.23
2019-02-07T13:35:33.207Z,3.57
2019-02-07T13:39:56.155Z,3.10
2019-02-07T13:44:18.630Z,3.77
2019-02-07T13:48:44.934Z,3.87
2019-02-07T13:53:26.066Z,2.63
2019-02-07T13:58:01.040Z,3.20
2019-02-07T14:02:23.209Z,2.93
2019-02-07T14:06:39.454Z,3.03
2019-02-07T14:11:05.311Z,2.70
2019-02-07T14:15:43.362Z,2.97
2019-02-07T14:20:15.238Z,3.83
2019-02-07T14:24:32.312Z,2.53
2019-02-07T14:29:07.646Z,3.53
2019-02-07T14:33:21.355Z,3.03
2019-02-07T14:37:47.318Z,3.47
2019-02-07T14:42:03.833Z,4.30
2019-02-07T14:46:33.067Z,2.33
2019-02-07T14:50:36.362Z,2.30
2019-02-07T14:54:40.595Z,3.20
2019-02-07T14:58:44.330Z,2.43
2019-02-07T15:02:48.495Z,2.83
2019-02-07T15:06:52.242Z,3.97
2019-02-07T15:10:56.046Z,3.30
2019-02-07T15:14:59.587Z,2.67
2019-02-07T15:19:03.421Z,2.87
2019-02-07T15:23:07.414Z,11.80
2019-02-07T15:27:11.153Z,3.10
2019-02-07T15:31:14.438Z,3.70
2019-02-07T15:35:21.346Z,3.37
2019-02-07T15:39:25.222Z,2.87
2019-02-07T15:43:28.590Z,2.60
2019-02-07T15:47:31.883Z,2.50
2019-02-07T15:51:35.614Z,2.70
2019-02-07T15:55:39.823Z,2.30
2019-02-07T15:59:47.342Z,2.37
2019-02-07T16:04:01.779Z,2.30
2019-02-07T16:08:05.142Z,3.17
2019-02-07T16:12:09.295Z,3.23
2019-02-07T16:16:12.726Z,2.60
2019-02-07T16:20:16.788Z,2.40
2019-02-07T16:24:20.699Z,2.43
2019-02-07T16:28:24.306Z,2.73
2019-02-07T16:32:27.587Z,2.93
2019-02-07T16:36:31.006Z,2.53
2019-02-07T16:40:34.875Z,2.53
2019-02-07T16:44:38.613Z,3.17
2019-02-07T16:48:42.622Z,2.77
2019-02-07T16:52:45.979Z,2.97
2019-02-07T16:56:49.707Z,3.17
2019-02-07T17:00:53.214Z,2.90
2019-02-07T17:04:56.510Z,2.10
2019-02-07T17:09:00.622Z,3.50
2019-02-07T17:13:05.407Z,2.80
2019-02-07T17:17:09.355Z,1.93
2019-02-07T17:21:13.049Z,1.17
2019-02-07T17:25:17.284Z,1.47
2019-02-07T17:29:21.178Z,1.10
2019-02-07T17:33:25.306Z,1.23
2019-02-07T17:37:29.114Z,1.97
2019-02-07T17:41:32.410Z,1.47
2019-02-07T17:45:35.774Z,1.13
2019-02-07T17:49:39.098Z,1.63
2019-02-07T17:53:42.375Z,2.13
2019-02-07T17:57:45.674Z,1.57
2019-02-07T18:01:49.730Z,1.97
2019-02-07T18:05:53.006Z,1.43
2019-02-07T18:09:56.762Z,1.43
2019-02-07T18:14:00.909Z,3.20
2019-02-07T18:18:05.406Z,1.30
2019-02-07T18:22:08.686Z,1.90
2019-02-07T18:26:12.767Z,2.20
2019-02-07T18:30:16.758Z,1.83
2019-02-07T18:34:20.054Z,2.20
2019-02-07T18:38:23.338Z,2.70
2019-02-07T18:42:27.135Z,2.10
2019-02-07T18:46:30.436Z,1.70
2019-02-07T18:50:35.854Z,1.90
2019-02-07T18:54:39.166Z,1.60
2019-02-07T18:58:42.927Z,2.10
2019-02-07T19:02:46.316Z,3.00
2019-02-07T19:06:49.669Z,2.03
2019-02-07T19:10:53.407Z,2.70
2019-02-07T19:14:56.990Z,1.87
2019-02-07T19:19:00.293Z,2.03
2019-02-07T19:23:04.151Z,2.27
2019-02-07T19:27:07.942Z,2.77
2019-02-07T19:31:12.026Z,1.57
2019-02-07T19:35:16.307Z,1.63
2019-02-07T19:39:20.342Z,1.07
2019-02-07T19:43:24.340Z,3.03
2019-02-07T19:47:27.682Z,2.33
2019-02-07T19:51:31.415Z,2.83
2019-02-07T19:55:34.814Z,3.53
2019-02-07T19:59:38.128Z,5.10
2019-02-07T20:03:41.422Z,3.80
2019-02-07T20:07:45.202Z,4.17
2019-02-07T20:11:48.515Z,3.30
2019-02-07T20:15:52.355Z,4.90
2019-02-07T20:19:56.467Z,5.40
2019-02-07T20:24:00.279Z,3.70
2019-02-07T20:28:03.810Z,3.57
2019-02-07T20:32:07.978Z,5.13
2019-02-07T20:36:11.770Z,3.03
2019-02-07T20:40:17.387Z,3.73
2019-02-07T20:44:21.530Z,3.87
2019-02-07T20:48:25.270Z,4.13
2019-02-07T20:52:29.119Z,3.17
2019-02-07T20:56:33.035Z,4.63
2019-02-07T21:00:38.037Z,4.80
2019-02-07T21:04:41.335Z,4.57
2019-02-07T21:08:45.406Z,4.40
2019-02-07T21:12:49.435Z,3.90
2019-02-07T21:16:53.204Z,3.87
2019-02-07T21:20:56.922Z,3.60
2019-02-07T21:25:00.687Z,4.63
2019-02-07T21:29:04.891Z,4.50
2019-02-07T21:33:08.302Z,5.93
2019-02-07T21:37:12.382Z,5.23
2019-02-07T21:41:16.702Z,5.27
2019-02-07T21:45:41.217Z,4.63
2019-02-07T21:49:45.283Z,4.73
2019-02-07T21:53:49.019Z,4.60
2019-02-07T21:57:52.822Z,4.30
2019-02-07T22:01:56.574Z,3.87
2019-02-07T22:06:00.317Z,4.33
2019-02-07T22:10:05.235Z,5.37
2019-02-07T22:14:09.114Z,5.70
2019-02-07T22:18:13.362Z,4.57
2019-02-07T22:22:17.079Z,5.33
2019-02-07T22:26:20.454Z,5.33
2019-02-07T22:30:29.578Z,3.50
2019-02-07T22:34:32.894Z,5.77
2019-02-07T22:38:36.608Z,4.33
2019-02-07T22:42:47.535Z,4.03
2019-02-07T22:46:45.939Z,5.83
2019-02-07T22:50:49.680Z,8.40
2019-02-07T22:54:53.474Z,5.47
2019-02-07T22:58:57.274Z,3.80
2019-02-07T23:03:01.081Z,4.53
2019-02-07T23:07:04.660Z,4.63
2019-02-07T23:11:08.382Z,5.07
2019-02-07T23:15:12.398Z,4.80
2019-02-07T23:19:16.278Z,4.90
2019-02-07T23:23:19.994Z,5.80
2019-02-07T23:27:23.742Z,8.00
2019-02-07T23:31:27.850Z,3.60
2019-02-07T23:35:31.863Z,5.60
2019-02-07T23:39:35.682Z,4.50
2019-02-07T23:43:45.885Z,6.73
2019-02-07T23:47:45.866Z,4.80
2019-02-07T23:51:49.670Z,5.00
2019-02-07T23:55:52.971Z,4.77
2019-02-07T23:59:56.695Z,6.20
